Alpine Village, Colorado
Current Conditions -  °F | °C
As of 8:54 PM on Friday 19 Dec 2014 (Local Time) from K7BM Reporting Station
Clear Clear  
Wind Chill: -3°   Ceiling: Unl
Heat Index: -3°   Visibility: 10mi
Dew Point: -12°   Wind: 0mph
Humidity: 51%   Direction: NA
Pressure: 30.12"   Gusts: NA
Location:  38.7194°N, 106.276°W
Report Text: K7BM 200354Z AUTO 00000KT 10SM CLR M03/M12 A3012 RMK AO2
Loading
Personal Weather Stations






























Interactive Weather Map New forecast layout! Learn more

10-Day Weather Forecast

Advertisements
Track Severe Weather on mobile